• Join FlightAware (Why Join?)
  • Login
  • US Flag 
03:13PM EDT


 

Airport Tracker/Info


-or-


 

Live Flight TrackerFlight Track Log ✈ N509QS ✈ 14-Jul-2013 ✈ KHPN - KPSF

Flight Track Log - Related Links

Times and Time Zones

All times are in EDT time to prevent confusion due to time zone crossing. See the N509QS flight status page for this flight to view local times or setup timezone preferences in your user account.

Time Position Orientation Groundspeed Altitude Reporting Facility
EDT Latitude Longitude Course Direction KTS MPH feet Rate Location/Type
08:05AM 41.0167 -73.7167 44° Northeast 200 230 3,000  Level New York TRACON
08:06AM 41.0500 -73.7667 311° West 209 241 3,000  Level New York TRACON
08:07AM 41.0833 -73.8500 298° West 254 292 3,000 1,860 Level New York TRACON
08:08AM 41.1500 -73.8667 349° North 276 318 6,800 3,000 Climbing New York TRACON
08:09AM 41.2000 -73.7667 56° Northeast 296 341 9,000 1,080 Climbing New York TRACON
08:10AM 41.2333 -73.6833 62° Northeast 298 343 9,000  Level New York TRACON
08:11AM 41.4346 -73.3511 44° Northeast  Level FlightAware Approximate
08:11AM 41.2833 -73.5833 56° Northeast 299 344 9,000  Level New York TRACON
08:12AM 41.3333 -73.5000 51° Northeast 294 338 9,000  Level New York TRACON
08:13AM 41.4000 -73.4167 43° Northeast 292 336 9,000  Level New York TRACON
08:14AM 41.4272 -73.3869 39° Northeast 289 333 9,000  Level Boston Center
08:15AM 41.4842 -73.3103 45° Northeast 289 333 9,000  Level Boston Center
08:16AM 41.5411 -73.2361 44° Northeast 291 335 9,000  Level Boston Center
08:17AM 41.5978 -73.1561 47° Northeast 295 339 9,000  Level Boston Center
08:18AM 41.6731 -73.1183 21° North 278 320 9,000 -420 Level Boston Center
08:19AM 41.7481 -73.1386 349° North 281 323 8,200 -1,260 Descending Boston Center
08:20AM 41.8272 -73.1561 351° North 279 321 6,500 -1,620 Descending Boston Center
08:21AM 41.8936 -73.1708 351° North 262 302 5,100 -960 Descending Boston Center
08:22AM 41.9436 -73.1797 352° North 260 299 5,000 -120 Descending Boston Center
08:22AM 41.9728 -73.1911 344° North 256 295 5,000  Level Boston Center
08:23AM 42.0456 -73.2033 353° North 261 300 5,000  Level Boston Center
08:24AM 42.1225 -73.2239 349° North 263 303 5,000  Level Boston Center
08:25AM 42.1831 -73.2386 350° North 261 300 5,000  Level Boston Center
08:26AM 42.2436 -73.2028 24° Northeast 222 255 5,000  Level Boston Center
08:27AM 42.2753 -73.1303 59° Northeast 219 252 5,000  Level Boston Center